createdAt,value
2022-10-09T00:00:34.257Z,92.00
2022-10-09T00:02:37.490Z,91.75
2022-10-09T00:04:40.668Z,91.78
2022-10-09T00:06:43.919Z,92.09
2022-10-09T00:08:47.162Z,91.56
2022-10-09T00:10:50.171Z,93.24
2022-10-09T00:12:53.246Z,93.21
2022-10-09T00:14:57.703Z,92.96
2022-10-09T00:17:00.739Z,93.10
2022-10-09T00:19:03.993Z,93.15
2022-10-09T00:21:07.357Z,92.96
2022-10-09T00:23:10.773Z,93.19
2022-10-09T00:25:13.796Z,93.36
2022-10-09T00:27:17.095Z,93.11
2022-10-09T00:29:20.243Z,93.02
2022-10-09T00:31:25.040Z,92.74
2022-10-09T00:33:28.131Z,92.60
2022-10-09T00:35:31.100Z,91.77
2022-10-09T00:37:34.114Z,92.37
2022-10-09T00:39:37.553Z,92.27
2022-10-09T00:41:41.161Z,92.01
2022-10-09T00:43:46.611Z,92.53
2022-10-09T00:45:51.530Z,92.40
2022-10-09T00:47:58.407Z,92.99
2022-10-09T00:50:06.734Z,92.47
2022-10-09T00:52:09.782Z,92.23
2022-10-09T00:54:15.101Z,93.12
2022-10-09T00:56:18.134Z,93.32
2022-10-09T00:58:21.392Z,93.40
2022-10-09T01:00:25.049Z,92.56
2022-10-09T01:02:28.328Z,92.64
2022-10-09T01:04:33.356Z,92.13
2022-10-09T01:06:45.007Z,92.62
2022-10-09T01:08:52.563Z,92.35
2022-10-09T01:11:00.960Z,92.88
2022-10-09T01:13:08.617Z,92.84
2022-10-09T01:15:18.498Z,92.43
2022-10-09T01:17:26.707Z,92.35
2022-10-09T01:20:04.588Z,92.22
2022-10-09T01:22:17.325Z,92.39
2022-10-09T01:24:26.943Z,92.93
2022-10-09T01:27:12.176Z,93.08
2022-10-09T01:29:16.094Z,92.72
2022-10-09T01:31:20.572Z,93.04
2022-10-09T01:33:24.107Z,92.49
2022-10-09T01:35:28.363Z,92.71
2022-10-09T01:37:31.999Z,92.70
2022-10-09T01:39:36.524Z,93.39
2022-10-09T01:41:40.205Z,93.51
2022-10-09T01:43:45.053Z,93.23
2022-10-09T01:45:49.340Z,92.48
2022-10-09T01:47:53.217Z,92.40
2022-10-09T01:50:00.858Z,92.71
2022-10-09T01:52:08.429Z,91.77
2022-10-09T01:54:14.585Z,92.27
2022-10-09T01:56:22.214Z,92.67
2022-10-09T01:58:30.836Z,93.90
2022-10-09T02:00:38.221Z,93.43
2022-10-09T02:02:43.072Z,92.35
2022-10-09T02:04:46.724Z,91.78
2022-10-09T02:06:50.431Z,90.23
2022-10-09T02:08:55.238Z,91.63
2022-10-09T02:10:59.822Z,92.39
2022-10-09T02:13:03.548Z,91.95
2022-10-09T02:15:08.439Z,92.33
2022-10-09T02:17:17.088Z,92.94
2022-10-09T02:19:24.753Z,93.61
2022-10-09T02:21:34.155Z,93.88
2022-10-09T02:23:38.269Z,92.58
2022-10-09T02:25:42.717Z,93.28
2022-10-09T02:27:46.494Z,93.06
2022-10-09T02:29:50.375Z,93.89
2022-10-09T02:31:54.069Z,93.04
2022-10-09T02:33:59.601Z,92.55
2022-10-09T02:36:02.996Z,92.87
2022-10-09T02:38:06.574Z,92.89
2022-10-09T02:40:11.236Z,93.65
2022-10-09T02:42:14.751Z,93.24
2022-10-09T02:44:18.193Z,93.00
2022-10-09T02:46:22.134Z,92.98
2022-10-09T02:48:25.524Z,90.83
2022-10-09T02:50:30.263Z,90.77
2022-10-09T02:52:33.760Z,92.04
2022-10-09T02:54:36.822Z,92.04
2022-10-09T02:56:39.759Z,92.71
2022-10-09T02:58:42.829Z,92.36
2022-10-09T03:00:49.282Z,92.47
2022-10-09T03:02:52.908Z,92.03
2022-10-09T03:04:56.151Z,92.62
2022-10-09T03:07:00.543Z,93.39
2022-10-09T03:09:03.794Z,93.73
2022-10-09T03:11:06.876Z,93.32
2022-10-09T03:13:10.381Z,92.34
2022-10-09T03:15:14.104Z,91.72
2022-10-09T03:17:17.144Z,92.44
2022-10-09T03:19:20.160Z,91.76
2022-10-09T03:21:24.665Z,92.87
2022-10-09T03:23:28.963Z,91.96
2022-10-09T03:25:31.957Z,93.98
2022-10-09T03:27:34.959Z,93.49
2022-10-09T03:29:37.984Z,93.09
2022-10-09T03:31:51.725Z,93.55
2022-10-09T03:33:55.664Z,94.53
2022-10-09T03:35:58.623Z,93.26
2022-10-09T03:38:01.561Z,94.09
2022-10-09T03:40:06.851Z,93.96
2022-10-09T03:42:09.863Z,93.69
2022-10-09T03:44:12.900Z,94.74
2022-10-09T03:46:15.886Z,94.05
2022-10-09T03:48:18.924Z,94.05
2022-10-09T03:50:21.915Z,93.45
2022-10-09T03:52:25.230Z,94.68
2022-10-09T03:54:28.299Z,93.91
2022-10-09T03:56:32.657Z,94.09
2022-10-09T03:58:35.700Z,93.62
2022-10-09T04:00:38.876Z,93.69
2022-10-09T04:02:42.163Z,93.72
2022-10-09T04:04:45.156Z,93.45
2022-10-09T04:06:48.311Z,94.57
2022-10-09T04:08:51.235Z,93.03
2022-10-09T04:10:57.844Z,94.17
2022-10-09T04:13:02.224Z,95.12
2022-10-09T04:15:05.813Z,95.78
2022-10-09T04:17:08.864Z,95.87
2022-10-09T04:19:12.182Z,94.13
2022-10-09T04:21:15.238Z,95.77
2022-10-09T04:23:18.625Z,95.37
2022-10-09T04:25:21.745Z,94.27
2022-10-09T04:27:24.743Z,94.57
2022-10-09T04:29:29.136Z,94.98
2022-10-09T04:31:32.282Z,94.75
2022-10-09T04:33:35.319Z,95.37
2022-10-09T04:35:42.822Z,94.09
2022-10-09T04:37:46.087Z,94.50
2022-10-09T04:39:49.069Z,94.55
2022-10-09T04:41:52.156Z,95.29
2022-10-09T04:43:55.907Z,94.20
2022-10-09T04:46:00.536Z,95.18
2022-10-09T04:48:03.542Z,94.66
2022-10-09T04:50:07.698Z,94.27
2022-10-09T04:52:10.618Z,95.05
2022-10-09T04:54:13.809Z,94.21
2022-10-09T04:56:19.304Z,95.24
2022-10-09T04:58:22.265Z,95.47
2022-10-09T05:00:25.243Z,95.04
2022-10-09T05:02:29.583Z,95.43
2022-10-09T05:04:32.782Z,94.32
2022-10-09T05:06:35.916Z,94.65
2022-10-09T05:08:39.538Z,95.10
2022-10-09T05:10:42.590Z,95.20
2022-10-09T05:12:45.903Z,95.38
2022-10-09T05:14:49.032Z,95.10
2022-10-09T05:17:12.407Z,94.47
2022-10-09T05:19:17.235Z,94.49
2022-10-09T05:21:20.864Z,94.31
2022-10-09T05:23:23.862Z,94.94
2022-10-09T05:25:26.865Z,93.98
2022-10-09T05:27:29.883Z,93.82
2022-10-09T05:29:32.874Z,93.89
2022-10-09T05:31:35.951Z,94.98
2022-10-09T05:33:38.922Z,93.82
2022-10-09T05:35:51.355Z,93.98
2022-10-09T05:37:54.499Z,94.27
2022-10-09T05:39:57.482Z,93.98
2022-10-09T05:42:00.442Z,95.18
2022-10-09T05:44:04.408Z,95.18
2022-10-09T05:46:09.559Z,94.89
2022-10-09T05:48:12.726Z,94.71
2022-10-09T05:50:15.856Z,94.03
2022-10-09T05:52:20.160Z,95.61
2022-10-09T05:54:23.166Z,95.29
2022-10-09T05:56:27.334Z,94.89
2022-10-09T05:58:30.237Z,95.85
2022-10-09T06:00:33.321Z,94.54
2022-10-09T06:02:36.371Z,95.04
2022-10-09T06:04:39.461Z,96.08
2022-10-09T06:06:42.874Z,95.56
2022-10-09T06:08:47.531Z,96.20
2022-10-09T06:10:50.438Z,95.56
2022-10-09T06:12:53.374Z,95.01
2022-10-09T06:14:56.325Z,94.87
2022-10-09T06:17:01.423Z,94.50
2022-10-09T06:19:05.457Z,93.21
2022-10-09T06:21:08.786Z,92.51
2022-10-09T06:23:11.801Z,92.30
2022-10-09T06:25:16.378Z,91.91
2022-10-09T06:27:19.455Z,90.30
2022-10-09T06:29:22.646Z,91.60
2022-10-09T06:31:27.640Z,91.69
2022-10-09T06:33:32.715Z,91.83
2022-10-09T06:35:35.813Z,91.63
2022-10-09T06:37:38.787Z,89.12
2022-10-09T06:39:41.819Z,89.92
2022-10-09T06:41:46.247Z,87.22
2022-10-09T06:44:17.375Z,86.95
2022-10-09T06:46:21.432Z,87.38
2022-10-09T06:48:24.616Z,86.86
2022-10-09T06:50:27.982Z,88.03
2022-10-09T06:52:31.060Z,85.45
2022-10-09T06:54:34.251Z,86.84
2022-10-09T06:56:37.265Z,87.00
2022-10-09T06:58:42.012Z,87.99
2022-10-09T07:00:44.961Z,87.66
2022-10-09T07:02:48.334Z,85.49
2022-10-09T07:04:51.503Z,84.51
2022-10-09T07:06:54.807Z,83.68
2022-10-09T07:09:00.295Z,84.27
2022-10-09T07:11:09.681Z,83.21
2022-10-09T07:13:12.779Z,82.34
2022-10-09T07:15:17.131Z,83.01
2022-10-09T07:17:20.087Z,83.36
2022-10-09T07:19:23.136Z,81.31
2022-10-09T07:21:26.378Z,84.54
2022-10-09T07:23:29.616Z,83.57
2022-10-09T07:25:32.557Z,81.63
2022-10-09T07:27:36.176Z,83.19
2022-10-09T07:29:39.699Z,83.63
2022-10-09T07:31:44.492Z,81.69
2022-10-09T07:33:48.366Z,81.43
2022-10-09T07:35:55.342Z,82.32
2022-10-09T07:37:58.336Z,79.24
2022-10-09T07:40:01.324Z,77.94
2022-10-09T07:42:04.804Z,77.85
2022-10-09T07:44:07.783Z,78.13
2022-10-09T07:46:13.768Z,75.19
2022-10-09T07:48:19.316Z,76.32
2022-10-09T07:50:22.294Z,75.24
2022-10-09T07:52:25.364Z,75.64
2022-10-09T07:54:28.321Z,74.05
2022-10-09T07:56:33.038Z,74.76
2022-10-09T07:58:36.173Z,74.99
2022-10-09T08:00:39.307Z,73.50
2022-10-09T08:02:42.367Z,73.96
2022-10-09T08:04:46.821Z,73.00
2022-10-09T08:06:49.816Z,73.85
2022-10-09T08:08:54.360Z,73.92
2022-10-09T08:10:57.354Z,70.86
2022-10-09T08:13:00.367Z,72.06
2022-10-09T08:15:03.267Z,70.60
2022-10-09T08:17:06.362Z,72.65
2022-10-09T08:19:10.537Z,70.76
2022-10-09T08:21:16.444Z,72.35
2022-10-09T08:23:19.477Z,70.34
2022-10-09T08:25:22.539Z,71.80
2022-10-09T08:27:25.572Z,69.27
2022-10-09T08:29:28.613Z,70.76
2022-10-09T08:31:32.648Z,70.25
2022-10-09T08:33:35.673Z,70.85
2022-10-09T08:35:40.543Z,71.42
2022-10-09T08:37:46.179Z,70.27
2022-10-09T08:39:49.180Z,70.89
2022-10-09T08:41:54.292Z,69.51
2022-10-09T08:44:01.810Z,69.89
2022-10-09T08:46:09.214Z,70.41
2022-10-09T08:48:15.826Z,70.34
2022-10-09T08:50:22.976Z,69.92
2022-10-09T08:52:34.519Z,68.41
2022-10-09T08:54:40.530Z,70.50
2022-10-09T08:56:43.536Z,69.60
2022-10-09T08:58:46.684Z,69.68
2022-10-09T09:00:51.885Z,69.95
2022-10-09T09:03:20.974Z,70.26
2022-10-09T09:05:32.165Z,69.66
2022-10-09T09:07:41.733Z,69.76
2022-10-09T09:09:54.160Z,69.45
2022-10-09T09:12:02.028Z,69.57
2022-10-09T09:14:19.860Z,70.33
2022-10-09T09:16:29.039Z,70.46
2022-10-09T09:18:42.686Z,69.03
2022-10-09T09:20:52.934Z,69.83
2022-10-09T09:22:58.098Z,68.46
2022-10-09T09:25:03.460Z,68.81
2022-10-09T09:27:12.834Z,69.63
2022-10-09T09:29:17.247Z,69.77
2022-10-09T09:31:24.314Z,70.10
2022-10-09T09:33:37.310Z,70.12
2022-10-09T09:35:49.499Z,68.60
2022-10-09T09:37:52.516Z,67.54
2022-10-09T09:40:34.788Z,67.01
2022-10-09T09:42:21.847Z,66.17
2022-10-09T09:44:26.730Z,67.15
2022-10-09T09:46:31.333Z,64.99
2022-10-09T09:48:36.422Z,65.14
2022-10-09T09:50:50.441Z,64.59
2022-10-09T09:53:02.977Z,64.74
2022-10-09T09:55:06.919Z,65.39
2022-10-09T09:57:17.024Z,66.24
2022-10-09T09:59:37.286Z,65.08
2022-10-09T10:01:40.461Z,65.63
2022-10-09T10:03:50.890Z,66.21
2022-10-09T10:05:54.225Z,65.05
2022-10-09T10:07:57.618Z,64.34
2022-10-09T10:10:08.196Z,64.55
2022-10-09T10:12:17.740Z,64.83
2022-10-09T10:14:20.808Z,64.35
2022-10-09T10:16:27.182Z,64.04
2022-10-09T10:18:33.390Z,63.19
2022-10-09T10:20:44.593Z,63.39
2022-10-09T10:22:52.899Z,66.35
2022-10-09T10:24:58.065Z,64.72
2022-10-09T10:27:04.920Z,64.49
2022-10-09T10:29:13.361Z,64.58
2022-10-09T10:31:27.082Z,64.30
2022-10-09T10:33:34.463Z,63.76
2022-10-09T10:35:39.851Z,62.28
2022-10-09T10:37:46.685Z,62.76
2022-10-09T10:39:52.187Z,63.05
2022-10-09T10:41:58.578Z,61.94
2022-10-09T10:44:09.200Z,62.88
2022-10-09T10:46:18.829Z,62.74
2022-10-09T10:48:24.655Z,63.43
2022-10-09T10:50:36.253Z,63.44
2022-10-09T10:52:47.216Z,63.25
2022-10-09T10:54:53.753Z,64.04
2022-10-09T10:57:03.110Z,63.69
2022-10-09T10:59:20.902Z,64.21
2022-10-09T11:01:31.394Z,63.95
2022-10-09T11:03:44.031Z,63.83
2022-10-09T11:05:51.702Z,63.78
2022-10-09T11:08:03.999Z,64.66
2022-10-09T11:10:12.978Z,65.01
2022-10-09T11:12:43.237Z,64.89
2022-10-09T11:14:49.844Z,64.94
2022-10-09T11:17:01.612Z,64.89
2022-10-09T11:19:18.457Z,65.09
2022-10-09T11:21:39.142Z,64.88
2022-10-09T11:24:01.091Z,65.05
2022-10-09T11:26:13.101Z,64.12
2022-10-09T11:28:17.131Z,64.55
2022-10-09T11:30:20.312Z,63.98
2022-10-09T11:32:25.651Z,65.41
2022-10-09T11:34:33.319Z,64.11
2022-10-09T11:36:41.532Z,64.73
2022-10-09T11:38:47.467Z,65.19
2022-10-09T11:40:50.612Z,65.98
2022-10-09T11:42:59.737Z,64.58
2022-10-09T11:45:10.426Z,64.44
2022-10-09T11:47:21.873Z,64.30
2022-10-09T11:49:27.635Z,65.25
2022-10-09T11:51:35.191Z,64.60
2022-10-09T11:53:40.416Z,65.24
2022-10-09T11:55:43.898Z,65.63
2022-10-09T11:57:47.383Z,64.49
2022-10-09T11:59:50.603Z,64.20
2022-10-09T12:01:53.813Z,65.17
2022-10-09T12:04:02.082Z,63.93
2022-10-09T12:06:09.317Z,63.93
2022-10-09T12:08:18.342Z,64.91
2022-10-09T12:10:27.736Z,65.18
2022-10-09T12:12:33.950Z,64.95
2022-10-09T12:14:38.942Z,66.09
2022-10-09T12:16:43.997Z,64.89
2022-10-09T12:18:48.140Z,64.50
2022-10-09T12:20:52.068Z,65.09
2022-10-09T12:23:21.889Z,64.86
2022-10-09T12:25:27.543Z,63.04
2022-10-09T12:27:33.521Z,64.33
2022-10-09T12:29:42.016Z,63.49
2022-10-09T12:31:45.122Z,65.05
2022-10-09T12:33:51.080Z,64.40
2022-10-09T12:36:02.336Z,64.45
2022-10-09T12:38:17.165Z,63.73
2022-10-09T12:40:24.365Z,64.26
2022-10-09T12:42:28.756Z,64.56
2022-10-09T12:44:33.655Z,64.50
2022-10-09T12:46:38.621Z,63.93
2022-10-09T12:48:45.793Z,64.60
2022-10-09T12:50:49.254Z,64.30
2022-10-09T12:52:54.934Z,64.34
2022-10-09T12:54:57.925Z,64.53
2022-10-09T12:57:01.964Z,62.98
2022-10-09T12:59:07.651Z,62.81
2022-10-09T13:01:14.438Z,62.36
2022-10-09T13:03:24.423Z,64.16
2022-10-09T13:05:37.047Z,64.81
2022-10-09T13:07:40.345Z,65.60
2022-10-09T13:09:43.443Z,64.73
2022-10-09T13:11:47.278Z,65.18
2022-10-09T13:13:51.178Z,64.39
2022-10-09T13:16:03.883Z,64.02
2022-10-09T13:18:14.716Z,65.02
2022-10-09T13:20:26.426Z,65.10
2022-10-09T13:22:35.059Z,64.07
2022-10-09T13:24:38.995Z,64.43
2022-10-09T13:26:44.021Z,64.18
2022-10-09T13:28:47.226Z,64.55
2022-10-09T13:30:50.533Z,65.17
2022-10-09T13:32:54.917Z,65.44
2022-10-09T13:34:58.214Z,64.19
2022-10-09T13:37:01.403Z,65.45
2022-10-09T13:39:05.306Z,64.71
2022-10-09T13:41:08.455Z,65.16
2022-10-09T13:43:14.125Z,65.27
2022-10-09T13:45:17.330Z,65.56
2022-10-09T13:47:24.211Z,65.21
2022-10-09T13:49:29.134Z,65.55
2022-10-09T13:51:32.668Z,64.43
2022-10-09T13:53:36.086Z,63.12
2022-10-09T13:55:39.400Z,63.12
2022-10-09T13:57:42.408Z,63.39
2022-10-09T13:59:45.661Z,64.42
2022-10-09T14:01:48.885Z,61.19
2022-10-09T14:03:51.965Z,62.75
2022-10-09T14:06:00.270Z,63.44
2022-10-09T14:08:03.277Z,62.64
2022-10-09T14:10:07.312Z,63.29
2022-10-09T14:12:10.336Z,63.59
2022-10-09T14:14:13.294Z,63.81
2022-10-09T14:16:16.527Z,63.38
2022-10-09T14:18:19.813Z,62.99
2022-10-09T14:20:25.073Z,63.52
2022-10-09T14:22:29.525Z,65.17
2022-10-09T14:24:32.636Z,65.63
2022-10-09T14:26:35.682Z,65.55
2022-10-09T14:28:39.408Z,65.85
2022-10-09T14:30:42.665Z,63.35
2022-10-09T14:32:45.803Z,63.67
2022-10-09T14:34:48.990Z,62.98
2022-10-09T14:36:52.421Z,64.66
2022-10-09T14:38:57.208Z,63.70
2022-10-09T14:41:00.523Z,64.07
2022-10-09T14:43:03.554Z,63.43
2022-10-09T14:45:07.377Z,62.89
2022-10-09T14:47:10.417Z,64.64
2022-10-09T14:49:13.565Z,64.12
2022-10-09T14:51:18.131Z,65.08
2022-10-09T14:53:21.299Z,66.04
2022-10-09T14:55:26.208Z,65.59
2022-10-09T14:57:32.986Z,66.35
2022-10-09T14:59:38.374Z,65.58
2022-10-09T15:01:41.490Z,65.20
2022-10-09T15:03:44.930Z,65.17
2022-10-09T15:05:48.164Z,65.80
2022-10-09T15:07:51.534Z,65.79
2022-10-09T15:09:55.198Z,65.10
2022-10-09T15:11:59.918Z,66.13
2022-10-09T15:14:03.539Z,66.35
2022-10-09T15:16:08.709Z,66.44
2022-10-09T15:18:11.748Z,66.90
2022-10-09T15:20:14.740Z,66.24
2022-10-09T15:22:17.765Z,67.96
2022-10-09T15:24:20.776Z,66.83
2022-10-09T15:26:24.187Z,66.32
2022-10-09T15:28:29.031Z,65.83
2022-10-09T15:30:32.316Z,66.02
2022-10-09T15:32:35.536Z,66.43
2022-10-09T15:34:40.928Z,66.85
2022-10-09T15:36:45.764Z,66.14
2022-10-09T15:38:49.130Z,66.17
2022-10-09T15:40:54.646Z,67.72
2022-10-09T15:42:57.695Z,66.78
2022-10-09T15:45:02.086Z,67.83
2022-10-09T15:47:05.332Z,66.78
2022-10-09T15:49:08.747Z,66.73
2022-10-09T15:51:13.598Z,67.44
2022-10-09T15:53:17.668Z,67.38
2022-10-09T15:55:20.656Z,67.95
2022-10-09T15:57:23.731Z,68.69
2022-10-09T15:59:26.882Z,68.05
2022-10-09T16:01:31.373Z,67.81
2022-10-09T16:03:37.104Z,68.95
2022-10-09T16:05:40.569Z,68.80
2022-10-09T16:07:43.736Z,68.39
2022-10-09T16:09:46.726Z,69.14
2022-10-09T16:11:49.766Z,69.08
2022-10-09T16:13:53.106Z,69.15
2022-10-09T16:15:56.158Z,68.83
2022-10-09T16:18:00.617Z,69.36
2022-10-09T16:20:03.870Z,69.28
2022-10-09T16:22:06.890Z,70.21
2022-10-09T16:24:10.133Z,71.01
2022-10-09T16:26:15.252Z,69.59
2022-10-09T16:28:18.403Z,70.06
2022-10-09T16:30:21.725Z,71.44
2022-10-09T16:32:24.799Z,69.91
2022-10-09T16:34:29.168Z,72.12
2022-10-09T16:36:32.357Z,71.21
2022-10-09T16:38:35.442Z,71.92
2022-10-09T16:43:07.576Z,71.98
2022-10-09T16:45:12.130Z,71.30
2022-10-09T16:47:15.506Z,72.76
2022-10-09T16:49:21.503Z,73.29
2022-10-09T16:51:31.563Z,73.26
2022-10-09T16:53:34.745Z,72.76
2022-10-09T16:55:37.924Z,72.88
2022-10-09T16:57:41.005Z,74.50
2022-10-09T16:59:44.326Z,74.02
2022-10-09T17:01:49.542Z,74.60
2022-10-09T17:03:54.566Z,73.50
2022-10-09T17:05:57.554Z,74.93
2022-10-09T17:08:02.101Z,75.53
2022-10-09T17:10:05.938Z,74.93
2022-10-09T17:12:11.297Z,75.83
2022-10-09T17:14:14.938Z,76.06
2022-10-09T17:16:20.060Z,74.73
2022-10-09T17:18:23.458Z,76.69
2022-10-09T17:20:26.552Z,77.50
2022-10-09T17:22:29.601Z,76.04
2022-10-09T17:24:34.342Z,77.49
2022-10-09T17:26:37.403Z,76.20
2022-10-09T17:28:41.258Z,76.28
2022-10-09T17:30:44.412Z,76.77
2022-10-09T17:32:47.911Z,77.76
2022-10-09T17:34:52.049Z,76.70
2022-10-09T17:36:55.167Z,76.36
2022-10-09T17:38:58.492Z,77.58
2022-10-09T17:41:05.813Z,77.61
2022-10-09T17:43:09.229Z,77.43
2022-10-09T17:45:12.462Z,78.69
2022-10-09T17:47:15.470Z,77.76
2022-10-09T17:49:18.572Z,78.74
2022-10-09T17:51:23.927Z,77.55
2022-10-09T17:53:27.345Z,78.19
2022-10-09T17:55:31.141Z,78.60
2022-10-09T17:57:35.644Z,77.80
2022-10-09T17:59:38.903Z,77.96
2022-10-09T18:01:42.062Z,78.02
2022-10-09T18:03:45.602Z,79.11
2022-10-09T18:05:50.316Z,79.42
2022-10-09T18:07:53.544Z,78.70
2022-10-09T18:09:56.709Z,79.91
2022-10-09T18:11:59.922Z,80.41
2022-10-09T18:14:04.891Z,80.38
2022-10-09T18:16:08.871Z,80.58
2022-10-09T18:18:12.401Z,79.87
2022-10-09T18:20:15.618Z,79.96
2022-10-09T18:22:18.743Z,80.98
2022-10-09T18:24:22.062Z,80.05
2022-10-09T18:26:25.152Z,80.66
2022-10-09T18:30:41.655Z,81.63
2022-10-09T18:32:44.984Z,81.31
2022-10-09T18:34:48.167Z,81.11
2022-10-09T18:36:52.245Z,80.95
2022-10-09T18:38:56.514Z,81.55
2022-10-09T18:40:59.782Z,81.33
2022-10-09T18:43:03.108Z,81.53
2022-10-09T18:45:07.375Z,81.55
2022-10-09T18:47:14.627Z,80.99
2022-10-09T18:49:19.515Z,81.85
2022-10-09T18:51:24.840Z,82.05
2022-10-09T18:53:28.268Z,82.64
2022-10-09T18:55:31.412Z,81.75
2022-10-09T18:57:34.669Z,82.12
2022-10-09T18:59:38.495Z,81.84
2022-10-09T19:01:41.828Z,82.22
2022-10-09T19:03:49.957Z,82.14
2022-10-09T19:05:53.624Z,81.98
2022-10-09T19:07:56.731Z,82.66
2022-10-09T19:09:59.808Z,82.30
2022-10-09T19:12:02.882Z,81.99
2022-10-09T19:14:06.142Z,81.73
2022-10-09T19:16:09.895Z,82.91
2022-10-09T19:18:13.018Z,82.33
2022-10-09T19:20:17.719Z,83.29
2022-10-09T19:22:23.937Z,82.67
2022-10-09T19:24:30.037Z,82.53
2022-10-09T19:26:36.685Z,82.59
2022-10-09T19:28:41.375Z,82.92
2022-10-09T19:30:45.393Z,82.79
2022-10-09T19:32:48.970Z,82.28
2022-10-09T19:34:52.593Z,82.73
2022-10-09T19:36:57.038Z,83.01
2022-10-09T19:39:00.260Z,82.73
2022-10-09T19:41:07.880Z,82.78
2022-10-09T19:43:11.064Z,82.83
2022-10-09T19:45:14.309Z,83.02
2022-10-09T19:47:18.956Z,82.81
2022-10-09T19:49:21.966Z,83.02
2022-10-09T19:51:26.962Z,83.21
2022-10-09T19:53:31.578Z,82.94
2022-10-09T19:55:35.115Z,83.20
2022-10-09T19:57:38.516Z,83.47
2022-10-09T19:59:41.666Z,83.50
2022-10-09T20:01:44.778Z,82.60
2022-10-09T20:03:48.935Z,82.75
2022-10-09T20:05:52.141Z,83.33
2022-10-09T20:07:55.210Z,83.37
2022-10-09T20:09:59.577Z,83.39
2022-10-09T20:12:02.759Z,83.26
2022-10-09T20:14:05.968Z,83.57
2022-10-09T20:16:11.518Z,83.44
2022-10-09T20:18:14.560Z,83.72
2022-10-09T20:20:17.721Z,83.85
2022-10-09T20:22:20.794Z,83.65
2022-10-09T20:24:24.774Z,84.12
2022-10-09T20:26:29.788Z,83.67
2022-10-09T20:28:33.472Z,83.36
2022-10-09T20:30:36.570Z,83.86
2022-10-09T20:32:39.612Z,83.94
2022-10-09T20:34:42.722Z,84.85
2022-10-09T20:36:45.745Z,85.85
2022-10-09T20:38:48.912Z,86.03
2022-10-09T20:40:52.169Z,85.18
2022-10-09T20:42:56.719Z,86.16
2022-10-09T20:44:59.783Z,86.56
2022-10-09T20:47:02.917Z,85.74
2022-10-09T20:49:08.643Z,87.13
2022-10-09T20:51:11.739Z,86.55
2022-10-09T20:53:15.608Z,86.65
2022-10-09T20:55:18.739Z,87.56
2022-10-09T20:57:21.808Z,86.66
2022-10-09T20:59:26.587Z,87.54
2022-10-09T21:01:30.099Z,87.71
2022-10-09T21:03:33.341Z,87.41
2022-10-09T21:05:41.165Z,87.25
2022-10-09T21:07:44.762Z,87.29
2022-10-09T21:09:47.837Z,88.25
2022-10-09T21:11:51.033Z,88.55
2022-10-09T21:13:54.384Z,87.62
2022-10-09T21:15:58.817Z,88.49
2022-10-09T21:18:01.827Z,87.59
2022-10-09T21:20:05.064Z,87.67
2022-10-09T21:22:08.673Z,89.13
2022-10-09T21:24:11.803Z,88.09
2022-10-09T21:26:15.854Z,88.49
2022-10-09T21:28:19.422Z,89.41
2022-10-09T21:30:22.502Z,88.89
2022-10-09T21:32:27.068Z,88.43
2022-10-09T21:34:30.044Z,88.05
2022-10-09T21:36:47.131Z,90.08
2022-10-09T21:39:01.578Z,88.86
2022-10-09T21:41:04.827Z,89.70
2022-10-09T21:43:07.970Z,89.56
2022-10-09T21:45:12.338Z,90.27
2022-10-09T21:47:18.445Z,90.89
2022-10-09T21:49:24.826Z,89.47
2022-10-09T21:51:28.096Z,89.87
2022-10-09T21:53:31.116Z,90.57
2022-10-09T21:55:34.130Z,91.23
2022-10-09T21:57:37.186Z,90.66
2022-10-09T21:59:40.709Z,89.92
2022-10-09T22:01:43.717Z,90.23
2022-10-09T22:03:47.112Z,90.74
2022-10-09T22:05:51.553Z,91.70
2022-10-09T22:07:54.502Z,92.38
2022-10-09T22:09:57.817Z,91.22
2022-10-09T22:12:01.259Z,92.03
2022-10-09T22:14:05.502Z,92.17
2022-10-09T22:16:10.023Z,91.03
2022-10-09T22:18:13.407Z,92.27
2022-10-09T22:20:16.524Z,93.50
2022-10-09T22:22:23.724Z,92.48
2022-10-09T22:24:29.181Z,91.82
2022-10-09T22:26:32.467Z,93.33
2022-10-09T22:28:36.388Z,91.65
2022-10-09T22:30:39.386Z,91.13
2022-10-09T22:32:42.438Z,91.22
2022-10-09T22:34:45.428Z,91.27
2022-10-09T22:36:48.511Z,91.21
2022-10-09T22:38:53.925Z,91.21
2022-10-09T22:41:04.043Z,91.30
2022-10-09T22:43:07.075Z,91.05
2022-10-09T22:45:10.894Z,90.89
2022-10-09T22:47:13.899Z,91.50
2022-10-09T22:49:17.661Z,92.08
2022-10-09T22:51:22.968Z,90.25
2022-10-09T22:53:25.969Z,91.94
2022-10-09T22:55:30.286Z,91.45
2022-10-09T22:57:33.356Z,90.97
2022-10-09T22:59:36.388Z,93.06
2022-10-09T23:01:41.198Z,91.64
2022-10-09T23:03:44.313Z,93.60
2022-10-09T23:05:47.356Z,91.85
2022-10-09T23:07:50.406Z,91.59
2022-10-09T23:09:53.377Z,92.44
2022-10-09T23:11:58.690Z,93.31
2022-10-09T23:14:01.930Z,93.07
2022-10-09T23:16:06.873Z,93.86
2022-10-09T23:18:09.946Z,92.17
2022-10-09T23:20:12.859Z,92.67
2022-10-09T23:22:15.960Z,92.35
2022-10-09T23:24:18.868Z,93.35
2022-10-09T23:26:23.369Z,92.64
2022-10-09T23:28:27.961Z,91.62
2022-10-09T23:30:31.796Z,92.46
2022-10-09T23:32:34.743Z,93.15
2022-10-09T23:34:37.757Z,91.35
2022-10-09T23:36:40.693Z,91.26
2022-10-09T23:38:44.032Z,92.14
2022-10-09T23:40:55.816Z,92.82
2022-10-09T23:42:58.809Z,92.14
2022-10-09T23:45:03.408Z,92.55
2022-10-09T23:47:06.461Z,92.61
2022-10-09T23:49:09.455Z,91.52
2022-10-09T23:51:13.985Z,92.52
2022-10-09T23:53:17.265Z,92.45
2022-10-09T23:55:20.243Z,93.07
2022-10-09T23:57:23.364Z,93.16
2022-10-09T23:59:26.486Z,93.64
